Time;durP1;ratioP1;P1;durP2;ratioP2;P2;SDS_P1;SDS_P2;PMS_P1;PMS_P2;Temp;Humidity;BMP_temperature;BMP_pressure;BME280_temperature;BME280_humidity;BME280_pressure;Samples;Min_cycle;Max_cycle;Signal;HPM_P1;HPM_P2
2021/03/09 00:00:08;;;;;;;12.90;11.20;;;2.10;99.90;;;;;;5052070;28;20934;-81
2021/03/09 00:02:34;;;;;;;14.20;10.90;;;1.90;99.90;;;;;;5051973;28;20180;-81
2021/03/09 00:04:59;;;;;;;13.13;11.27;;;2.00;99.90;;;;;;5068702;28;20437;-81
2021/03/09 00:07:25;;;;;;;16.87;11.60;;;1.90;99.90;;;;;;5053361;28;20419;-81
2021/03/09 00:09:51;;;;;;;11.90;10.30;;;1.40;99.90;;;;;;5052727;28;20176;-81
2021/03/09 00:12:16;;;;;;;11.93;10.73;;;1.30;99.90;;;;;;5051399;28;20211;-81
2021/03/09 00:14:42;;;;;;;14.17;11.73;;;1.40;1.00;;;;;;5052696;28;20544;-81
2021/03/09 00:17:08;;;;;;;11.43;10.20;;;1.60;1.00;;;;;;5051216;28;20186;-81
2021/03/09 00:19:33;;;;;;;14.77;10.80;;;1.70;1.00;;;;;;5051367;28;20175;-81
2021/03/09 00:21:59;;;;;;;13.90;11.43;;;1.70;1.00;;;;;;5067805;28;20282;-80
2021/03/09 00:24:25;;;;;;;10.80;8.97;;;1.40;1.00;;;;;;5051493;28;20231;-81
2021/03/09 00:26:50;;;;;;;12.80;10.83;;;1.70;1.00;;;;;;5052693;28;20607;-80
2021/03/09 00:29:16;;;;;;;13.27;10.27;;;1.80;1.00;;;;;;5051026;28;20172;-81
2021/03/09 00:31:41;;;;;;;11.53;10.00;;;1.70;1.00;;;;;;5050750;28;20327;-81
2021/03/09 00:34:07;;;;;;;17.30;11.77;;;1.30;1.00;;;;;;5050985;28;20168;-81
2021/03/09 00:36:32;;;;;;;16.23;10.97;;;1.30;1.00;;;;;;5067465;28;20245;-81
2021/03/09 00:38:58;;;;;;;13.03;11.00;;;1.80;1.00;;;;;;5052337;28;20171;-81
2021/03/09 00:41:24;;;;;;;16.10;11.17;;;1.80;1.00;;;;;;5050759;28;20730;-81
2021/03/09 00:43:49;;;;;;;14.80;11.10;;;1.80;1.00;;;;;;5050619;28;20176;-81
2021/03/09 00:46:15;;;;;;;15.83;12.40;;;1.80;1.00;;;;;;5050679;28;20693;-81
2021/03/09 00:48:41;;;;;;;12.97;11.17;;;1.60;1.00;;;;;;5050688;28;20194;-81
2021/03/09 00:51:07;;;;;;;15.93;12.50;;;1.30;1.00;;;;;;5051864;28;20207;-81
2021/03/09 00:53:33;;;;;;;12.50;11.17;;;1.70;1.00;;;;;;5051857;28;20418;-81
2021/03/09 00:55:59;;;;;;;15.97;12.67;;;1.70;1.00;;;;;;5050481;28;20522;-82
2021/03/09 00:58:25;;;;;;;13.37;10.33;;;1.60;1.00;;;;;;5051763;28;20214;-81
2021/03/09 01:00:50;;;;;;;14.50;11.97;;;1.10;1.00;;;;;;5050046;28;20474;-81
2021/03/09 01:03:16;;;;;;;14.37;10.67;;;1.30;1.00;;;;;;5050218;28;20176;-81
2021/03/09 01:05:42;;;;;;;14.50;11.37;;;1.60;1.00;;;;;;5050345;28;20175;-81
2021/03/09 01:08:08;;;;;;;16.33;10.60;;;1.60;1.00;;;;;;5050280;28;20719;-81
2021/03/09 01:10:35;;;;;;;16.70;11.77;;;1.40;1.00;;;;;;5051629;28;20458;-81
2021/03/09 01:13:00;;;;;;;14.50;11.77;;;1.30;1.00;;;;;;5051607;28;20414;-81
2021/03/09 01:15:26;;;;;;;13.57;12.17;;;1.70;1.00;;;;;;5050160;28;20406;-81
2021/03/09 01:17:52;;;;;;;13.13;11.73;;;1.40;1.00;;;;;;5051670;28;20294;-81
2021/03/09 01:20:17;;;;;;;15.63;11.93;;;1.20;1.00;;;;;;5050099;28;20535;-82
2021/03/09 01:22:43;;;;;;;14.83;10.53;;;1.10;1.00;;;;;;5050230;28;20183;-81
2021/03/09 01:25:09;;;;;;;14.67;11.70;;;1.60;1.00;;;;;;5066795;28;20180;-81
2021/03/09 01:27:35;;;;;;;13.83;11.20;;;1.50;1.00;;;;;;5050324;28;20524;-81
2021/03/09 01:30:00;;;;;;;14.50;11.90;;;1.10;1.00;;;;;;5051280;28;20774;-81
2021/03/09 01:32:26;;;;;;;13.87;12.37;;;1.30;1.00;;;;;;5051361;28;20179;-81
2021/03/09 01:34:52;;;;;;;14.27;12.53;;;1.30;1.00;;;;;;5049826;28;20423;-81
2021/03/09 01:37:18;;;;;;;14.57;10.63;;;0.90;1.00;;;;;;5051371;28;20255;-81
2021/03/09 01:39:43;;;;;;;14.97;11.43;;;0.90;1.00;;;;;;5051215;28;20204;-81
2021/03/09 01:42:09;;;;;;;16.03;12.77;;;0.90;1.00;;;;;;5049991;28;20782;-81
2021/03/09 01:44:35;;;;;;;13.13;10.80;;;1.20;1.00;;;;;;5053436;28;20328;-81
2021/03/09 01:47:02;;;;;;;12.43;10.00;;;1.30;1.00;;;;;;5054167;28;20283;-80
2021/03/09 01:49:37;;;;;;;13.93;10.67;;;1.20;1.00;;;;;;5055330;28;20426;-81
2021/03/09 01:52:05;;;;;;;13.63;11.27;;;1.40;1.00;;;;;;5054077;28;20507;-81
2021/03/09 01:54:32;;;;;;;14.87;11.53;;;1.40;1.00;;;;;;5053950;28;20501;-81
2021/03/09 01:56:57;;;;;;;16.10;11.20;;;1.30;1.00;;;;;;5054219;28;20595;-81
2021/03/09 01:59:24;;;;;;;16.57;11.67;;;1.10;1.00;;;;;;5053907;28;20548;-80
2021/03/09 02:01:51;;;;;;;13.33;10.70;;;1.30;1.00;;;;;;5055329;28;20209;-81
2021/03/09 02:04:16;;;;;;;15.90;11.50;;;1.30;1.00;;;;;;5053857;28;20552;-80
2021/03/09 02:06:42;;;;;;;15.10;11.30;;;1.40;1.00;;;;;;5053926;28;20991;-81
2021/03/09 02:09:08;;;;;;;17.70;11.73;;;1.30;1.00;;;;;;5053839;28;20313;-81
2021/03/09 02:11:40;;;;;;;20.30;11.60;;;1.40;1.00;;;;;;5053815;28;20211;-81
2021/03/09 02:14:30;;;;;;;14.93;11.20;;;1.20;1.00;;;;;;5054114;28;20751;-81
2021/03/09 02:17:01;;;;;;;13.10;10.70;;;1.30;1.00;;;;;;5053797;28;20422;-81
2021/03/09 02:19:51;;;;;;;13.57;11.70;;;1.50;1.00;;;;;;5053683;28;20431;-81
2021/03/09 02:22:39;;;;;;;17.33;11.37;;;1.30;1.00;;;;;;5055128;28;20479;-80
2021/03/09 02:25:23;;;;;;;14.03;12.57;;;1.60;1.00;;;;;;5054897;28;20464;-81
2021/03/09 02:28:17;;;;;;;16.20;12.03;;;1.60;1.00;;;;;;5054834;28;20476;-81
2021/03/09 02:30:44;;;;;;;12.93;11.53;;;1.30;1.00;;;;;;5054798;28;20449;-81
2021/03/09 02:33:15;;;;;;;18.10;11.30;;;1.50;1.00;;;;;;5053304;28;20518;-81
2021/03/09 02:35:48;;;;;;;14.57;10.70;;;1.40;1.00;;;;;;5054686;28;20453;-81
2021/03/09 02:38:17;;;;;;;16.00;11.30;;;1.40;1.00;;;;;;5053316;28;20438;-81
2021/03/09 02:40:44;;;;;;;15.20;11.40;;;1.30;1.00;;;;;;5053505;28;20422;-81
2021/03/09 02:43:16;;;;;;;17.80;12.07;;;1.20;1.00;;;;;;5053167;28;20472;-81
2021/03/09 02:45:47;;;;;;;18.67;11.90;;;1.00;1.00;;;;;;5053186;28;20434;-81
2021/03/09 02:48:13;;;;;;;16.93;11.67;;;0.70;1.00;;;;;;5053100;28;20472;-81
2021/03/09 02:50:40;;;;;;;16.93;12.20;;;1.00;1.00;;;;;;5052949;28;20477;-81
2021/03/09 02:53:11;;;;;;;13.20;10.73;;;1.10;1.00;;;;;;5054619;28;20731;-81
2021/03/09 02:55:38;;;;;;;17.67;12.43;;;1.10;1.00;;;;;;5053014;28;20421;-81
2021/03/09 02:58:08;;;;;;;15.00;10.83;;;0.60;1.00;;;;;;5054296;28;20415;-81
2021/03/09 03:00:35;;;;;;;15.27;11.43;;;1.00;1.00;;;;;;5052471;28;20466;-81
2021/03/09 03:03:05;;;;;;;13.47;11.40;;;0.90;1.00;;;;;;5054078;28;20501;-81
2021/03/09 03:05:31;;;;;;;14.23;10.60;;;1.00;1.00;;;;;;5054030;28;20406;-81
2021/03/09 03:07:58;;;;;;;15.10;12.10;;;1.00;2.80;;;;;;5052732;28;20545;-82
2021/03/09 03:10:23;;;;;;;17.50;12.20;;;0.80;14.00;;;;;;5052621;28;20557;-81
2021/03/09 03:12:50;;;;;;;12.93;11.27;;;1.20;10.50;;;;;;5053887;28;20207;-81
2021/03/09 03:15:17;;;;;;;20.70;12.50;;;1.20;10.50;;;;;;5054014;28;20176;-81
2021/03/09 03:17:44;;;;;;;14.73;12.47;;;1.20;9.10;;;;;;5052657;28;20990;-81
2021/03/09 03:20:17;;;;;;;22.40;13.07;;;0.80;3.70;;;;;;5052650;28;20426;-81
2021/03/09 03:22:44;;;;;;;13.40;11.03;;;1.10;3.80;;;;;;5052418;28;20430;-81
2021/03/09 03:25:11;;;;;;;15.13;12.07;;;1.20;7.60;;;;;;5052434;28;20914;-81
2021/03/09 03:27:40;;;;;;;18.53;11.73;;;1.00;19.00;;;;;;5053585;28;20431;-81
2021/03/09 03:30:11;;;;;;;17.23;11.63;;;1.00;22.80;;;;;;5052102;28;20954;-81
2021/03/09 03:32:38;;;;;;;14.63;12.97;;;0.90;33.60;;;;;;5052300;28;20508;-81
2021/03/09 03:35:07;;;;;;;15.17;12.07;;;0.60;30.50;;;;;;5052304;28;20796;-81
2021/03/09 03:37:34;;;;;;;20.30;14.73;;;0.90;29.10;;;;;;5052199;28;20484;-81
2021/03/09 03:39:59;;;;;;;16.67;12.93;;;0.60;38.10;;;;;;5053506;28;20529;-81
2021/03/09 03:42:25;;;;;;;24.93;14.97;;;0.90;50.60;;;;;;5052065;28;20521;-81
2021/03/09 03:44:51;;;;;;;22.40;14.57;;;0.90;54.20;;;;;;5053564;28;20172;-81
2021/03/09 03:47:16;;;;;;;18.10;13.27;;;0.90;68.40;;;;;;5053364;28;20263;-81
2021/03/09 03:49:42;;;;;;;16.90;12.70;;;0.90;83.50;;;;;;5052104;28;20171;-81
2021/03/09 03:52:33;;;;;;;14.60;12.03;;;0.90;92.70;;;;;;5051878;28;20215;-81
2021/03/09 03:55:55;;;;;;;17.13;12.70;;;0.90;96.30;;;;;;5054753;28;20234;-81
2021/03/09 03:58:32;;;;;;;21.43;13.43;;;0.90;99.90;;;;;;4995403;28;20471;-81
2021/03/09 04:00:58;;;;;;;17.70;13.40;;;1.10;99.90;;;;;;4993070;28;20494;-81
2021/03/09 04:03:24;;;;;;;19.00;13.77;;;1.00;99.90;;;;;;5032537;28;20435;-81
2021/03/09 04:05:51;;;;;;;17.77;12.20;;;0.90;99.90;;;;;;5050929;28;20441;-81
2021/03/09 04:08:17;;;;;;;16.80;13.97;;;0.90;99.90;;;;;;5051780;28;20317;-81
2021/03/09 04:10:47;;;;;;;14.67;12.57;;;0.90;99.90;;;;;;5052801;28;20818;-81
2021/03/09 04:13:15;;;;;;;15.90;12.73;;;0.90;99.90;;;;;;5051390;28;20764;-80
2021/03/09 04:15:41;;;;;;;15.60;13.87;;;1.10;99.90;;;;;;5053106;28;20849;-81
2021/03/09 04:18:10;;;;;;;19.80;13.43;;;1.20;99.90;;;;;;5052725;28;20411;-80
2021/03/09 04:20:36;;;;;;;18.50;13.40;;;1.10;99.90;;;;;;5051424;28;20418;-81
2021/03/09 04:23:05;;;;;;;15.97;13.33;;;0.70;99.90;;;;;;5051377;28;20560;-81
2021/03/09 04:25:35;;;;;;;21.57;17.07;;;1.00;99.90;;;;;;5052712;28;20509;-81
2021/03/09 04:28:02;;;;;;;17.17;14.23;;;1.00;99.90;;;;;;5051309;28;20415;-81
2021/03/09 04:30:30;;;;;;;23.60;15.10;;;0.90;99.90;;;;;;5052600;28;20465;-81
2021/03/09 04:32:56;;;;;;;20.77;13.90;;;0.90;99.90;;;;;;5051093;28;20427;-81
2021/03/09 04:35:22;;;;;;;18.37;15.50;;;0.90;99.90;;;;;;5051222;28;20421;-81
2021/03/09 04:37:48;;;;;;;18.03;14.50;;;0.90;99.90;;;;;;5051212;28;20172;-81
2021/03/09 04:40:14;;;;;;;21.50;13.80;;;0.90;99.90;;;;;;5052526;28;20608;-81
2021/03/09 04:42:40;;;;;;;17.57;13.10;;;0.90;99.90;;;;;;5052228;28;21005;-81
2021/03/09 04:48:04;;;;;;;17.67;14.43;;;0.80;99.90;;;;;;5052138;28;20189;-81
2021/03/09 04:50:30;;;;;;;21.27;14.90;;;0.70;99.90;;;;;;5050757;28;20458;-81
2021/03/09 04:52:57;;;;;;;21.17;13.50;;;0.90;99.90;;;;;;5052185;28;20513;-81
2021/03/09 04:55:24;;;;;;;19.57;14.50;;;0.80;99.90;;;;;;5050614;28;20445;-81
2021/03/09 04:57:50;;;;;;;19.97;14.80;;;0.60;99.90;;;;;;5052031;28;20514;-81
2021/03/09 05:00:26;;;;;;;24.47;14.80;;;0.40;99.90;;;;;;5050432;28;20892;-82
2021/03/09 05:02:53;;;;;;;21.83;14.83;;;0.90;99.90;;;;;;5050754;28;20278;-81
2021/03/09 05:05:24;;;;;;;21.67;16.30;;;0.70;99.90;;;;;;5050936;28;21157;-82
2021/03/09 05:07:50;;;;;;;25.30;16.63;;;0.80;99.90;;;;;;5051130;28;20427;-81
2021/03/09 05:10:17;;;;;;;19.70;15.33;;;0.90;99.90;;;;;;5051034;28;21004;-81
2021/03/09 05:12:50;;;;;;;20.47;16.63;;;1.00;99.90;;;;;;5050820;28;20998;-81
2021/03/09 05:15:19;;;;;;;26.30;15.90;;;0.80;99.90;;;;;;5050702;28;20418;-81
2021/03/09 05:17:44;;;;;;;18.93;13.53;;;0.80;99.90;;;;;;5049839;28;20539;-80
2021/03/09 05:20:12;;;;;;;28.47;17.27;;;1.10;99.90;;;;;;5050657;28;20985;-81
2021/03/09 05:22:38;;;;;;;24.43;15.90;;;0.90;99.90;;;;;;5052092;28;20176;-82
2021/03/09 05:25:10;;;;;;;22.40;16.20;;;0.80;99.90;;;;;;5050891;28;20441;-81
2021/03/09 05:27:36;;;;;;;23.00;16.00;;;0.90;99.90;;;;;;5050512;28;20450;-75
2021/03/09 05:30:03;;;;;;;23.40;16.40;;;0.90;99.90;;;;;;5051933;28;20525;-80
2021/03/09 05:32:29;;;;;;;24.27;17.53;;;1.10;99.90;;;;;;5067336;28;20231;-80
2021/03/09 05:34:54;;;;;;;19.00;16.90;;;0.90;99.90;;;;;;5050235;28;20448;-81
2021/03/09 05:37:20;;;;;;;22.43;16.70;;;0.60;99.90;;;;;;5050297;28;20183;-81
2021/03/09 05:39:45;;;;;;;22.10;16.00;;;0.90;99.90;;;;;;5050469;28;20271;-82
2021/03/09 05:42:11;;;;;;;21.57;16.00;;;0.80;99.90;;;;;;5050945;28;20182;-80
2021/03/09 05:44:38;;;;;;;25.67;17.53;;;0.80;99.90;;;;;;5050453;28;20176;-81
2021/03/09 05:47:05;;;;;;;20.60;16.23;;;1.00;99.90;;;;;;5051144;28;20433;-80
2021/03/09 05:49:31;;;;;;;23.30;18.57;;;0.80;99.90;;;;;;5050832;28;20900;-81
2021/03/09 05:51:56;;;;;;;18.90;14.97;;;0.80;99.90;;;;;;5049803;28;20481;-76
2021/03/09 05:54:23;;;;;;;20.90;15.20;;;0.90;99.90;;;;;;5051379;28;20414;-80
2021/03/09 05:56:49;;;;;;;20.53;15.90;;;0.90;99.90;;;;;;5050488;28;20187;-81
2021/03/09 05:59:15;;;;;;;25.87;17.43;;;0.70;99.90;;;;;;5049795;28;20480;-80
2021/03/09 06:01:40;;;;;;;28.37;17.90;;;0.80;99.90;;;;;;5050199;28;20184;-81
2021/03/09 06:04:06;;;;;;;26.17;17.40;;;0.90;99.90;;;;;;5050334;28;20620;-81
2021/03/09 06:06:32;;;;;;;32.90;20.37;;;0.80;99.90;;;;;;5050120;28;20701;-80
2021/03/09 06:08:59;;;;;;;28.30;18.30;;;0.90;99.90;;;;;;5046192;28;20434;-81
2021/03/09 06:11:25;;;;;;;27.70;18.00;;;0.50;99.90;;;;;;5049753;28;20375;-80
2021/03/09 06:13:50;;;;;;;23.23;18.13;;;0.70;99.90;;;;;;5050687;28;20509;-82
2021/03/09 06:16:16;;;;;;;28.40;19.77;;;0.80;99.90;;;;;;5050109;28;20656;-81
2021/03/09 06:18:58;;;;;;;23.63;19.80;;;0.80;99.90;;;;;;5050553;28;20195;-81
2021/03/09 06:21:24;;;;;;;25.90;19.30;;;0.90;99.90;;;;;;5046855;28;20188;-81
2021/03/09 06:23:50;;;;;;;23.50;17.80;;;1.00;99.90;;;;;;5050891;28;20414;-80
2021/03/09 06:26:38;;;;;;;22.00;17.50;;;0.90;99.90;;;;;;5052318;28;20445;-81
2021/03/09 06:29:17;;;;;;;19.33;16.47;;;1.00;99.90;;;;;;5050853;28;20965;-81
2021/03/09 06:31:48;;;;;;;27.53;19.50;;;1.20;99.90;;;;;;5053929;28;20469;-81
2021/03/09 06:34:27;;;;;;;26.73;18.00;;;1.20;99.90;;;;;;5054163;28;20523;-81
2021/03/09 06:37:13;;;;;;;29.47;17.97;;;1.20;99.90;;;;;;5054815;28;20460;-82
2021/03/09 06:39:45;;;;;;;23.53;17.20;;;1.30;99.90;;;;;;5052942;28;20432;-82
2021/03/09 06:42:11;;;;;;;29.17;23.37;;;1.10;99.90;;;;;;5052713;28;20426;-81
2021/03/09 06:44:38;;;;;;;26.70;21.57;;;0.90;99.90;;;;;;5052242;28;20783;-83
2021/03/09 06:47:04;;;;;;;30.10;23.23;;;1.20;99.90;;;;;;5052366;28;20433;-81
2021/03/09 06:49:30;;;;;;;30.13;22.40;;;1.30;99.90;;;;;;5052429;28;20423;-82
2021/03/09 06:52:12;;;;;;;28.47;22.63;;;1.50;99.90;;;;;;5052505;28;20988;-80
2021/03/09 06:54:48;;;;;;;23.50;20.73;;;1.50;99.90;;;;;;5053378;28;20500;-81
2021/03/09 06:57:14;;;;;;;29.13;19.90;;;2.00;99.90;;;;;;5052417;28;20763;-78
2021/03/09 06:59:45;;;;;;;35.60;21.80;;;1.90;99.90;;;;;;5061747;28;20456;-81
2021/03/09 07:02:14;;;;;;;23.90;20.43;;;2.10;99.90;;;;;;5073763;28;20167;-82
2021/03/09 07:04:41;;;;;;;29.27;21.03;;;2.10;99.90;;;;;;5055362;28;21003;-81
2021/03/09 07:07:09;;;;;;;24.43;17.13;;;2.10;99.90;;;;;;5055400;28;20429;-80
2021/03/09 07:09:35;;;;;;;24.20;17.27;;;1.70;99.90;;;;;;5055611;28;20651;-81
2021/03/09 07:12:02;;;;;;;22.27;17.50;;;2.40;99.90;;;;;;5055536;28;20560;-82
2021/03/09 07:14:33;;;;;;;19.47;16.60;;;2.20;98.90;;;;;;5073573;28;20402;-81
2021/03/09 07:17:02;;;;;;;19.70;17.23;;;2.70;82.20;;;;;;5073552;28;20572;-80
2021/03/09 07:19:36;;;;;;;29.07;18.93;;;2.80;56.70;;;;;;5055636;28;20785;-81
2021/03/09 07:22:05;;;;;;;26.30;18.80;;;2.40;22.30;;;;;;5054187;28;20456;-81
2021/03/09 07:24:32;;;;;;;20.93;15.47;;;2.90;2.30;;;;;;5074393;28;20425;-81
2021/03/09 07:27:03;;;;;;;19.47;16.17;;;2.80;1.00;;;;;;5056599;28;20499;-81
2021/03/09 07:29:31;;;;;;;22.30;16.80;;;2.70;1.00;;;;;;5056124;28;20432;-81
2021/03/09 07:31:59;;;;;;;15.90;13.57;;;2.70;1.00;;;;;;5073534;28;20473;-81
2021/03/09 07:34:26;;;;;;;16.30;14.60;;;2.80;1.00;;;;;;5072706;28;20508;-81
2021/03/09 07:36:54;;;;;;;20.43;14.57;;;3.30;1.00;;;;;;5073519;28;20414;-81
2021/03/09 07:39:20;;;;;;;20.37;14.13;;;3.50;1.00;;;;;;5056951;28;20448;-79
2021/03/09 07:41:46;;;;;;;18.60;14.97;;;3.50;1.00;;;;;;5054591;28;20493;-81
2021/03/09 07:44:12;;;;;;;17.97;13.87;;;3.70;99.90;;;;;;5073007;28;20175;-81
2021/03/09 07:46:38;;;;;;;18.17;15.13;;;3.30;99.90;;;;;;5072620;28;20804;-82
2021/03/09 07:49:04;;;;;;;20.27;15.60;;;3.00;99.90;;;;;;5073622;28;20806;-81
2021/03/09 07:51:30;;;;;;;19.07;15.60;;;2.90;99.90;;;;;;5054579;28;20468;-80
2021/03/09 07:54:13;;;;;;;21.97;15.30;;;3.40;1.00;;;;;;5057225;28;20432;-81
2021/03/09 07:57:18;;;;;;;20.80;15.50;;;3.10;1.00;;;;;;5072890;28;20172;-81
2021/03/09 07:59:54;;;;;;;21.60;14.87;;;3.40;1.00;;;;;;5055517;28;20976;-82
2021/03/09 08:02:42;;;;;;;22.50;16.00;;;3.40;1.00;;;;;;5073458;28;20464;-81
2021/03/09 08:05:19;;;;;;;21.50;16.73;;;3.30;1.00;;;;;;5075948;28;20780;-81
2021/03/09 08:07:51;;;;;;;19.10;15.90;;;3.50;1.00;;;;;;5055705;28;20483;-80
2021/03/09 08:10:36;;;;;;;33.57;17.03;;;3.70;1.00;;;;;;5056419;28;20418;-76
2021/03/09 08:13:07;;;;;;;17.67;15.63;;;4.00;1.00;;;;;;5073106;28;20909;-81
2021/03/09 08:15:34;;;;;;;21.57;16.70;;;4.30;1.00;;;;;;5073170;28;20947;-81
2021/03/09 08:18:32;;;;;;;22.10;16.63;;;4.30;99.90;;;;;;5055371;28;20892;-80
2021/03/09 08:21:01;;;;;;;23.70;16.03;;;4.40;1.00;;;;;;5055352;28;20459;-80
2021/03/09 08:23:35;;;;;;;36.90;26.40;;;4.40;99.90;;;;;;5072866;28;20417;-81
2021/03/09 08:26:01;;;;;;;16.67;14.87;;;4.50;99.90;;;;;;5073005;28;20413;-81
2021/03/09 08:28:36;;;;;;;16.77;14.57;;;4.50;1.00;;;;;;5055026;28;20421;-81
2021/03/09 08:31:16;;;;;;;20.33;16.00;;;4.70;1.00;;;;;;5072544;28;20241;-81
2021/03/09 08:33:49;;;;;;;17.17;15.33;;;4.70;99.90;;;;;;5055300;28;21009;-81
2021/03/09 08:36:24;;;;;;;16.87;15.10;;;4.80;99.90;;;;;;5056058;28;20505;-81
2021/03/09 08:39:02;;;;;;;21.33;16.23;;;4.80;1.00;;;;;;5054800;28;20417;-81
2021/03/09 08:41:48;;;;;;;20.97;16.80;;;4.80;1.00;;;;;;5073068;28;20418;-80
2021/03/09 08:44:23;;;;;;;17.70;15.97;;;5.10;1.00;;;;;;5037994;28;20446;-81
2021/03/09 08:47:07;;;;;;;16.63;14.87;;;5.20;1.00;;;;;;5072766;28;20412;-81
2021/03/09 08:49:35;;;;;;;17.40;15.33;;;5.30;99.90;;;;;;5072796;28;20425;-81
2021/03/09 08:52:06;;;;;;;17.20;15.00;;;5.40;99.90;;;;;;5054228;28;20469;-81
2021/03/09 08:54:35;;;;;;;18.73;15.97;;;5.20;99.90;;;;;;5054408;28;20840;-81
2021/03/09 08:57:03;;;;;;;31.83;17.07;;;5.30;99.90;;;;;;5054448;28;20424;-80
2021/03/09 08:59:31;;;;;;;21.77;16.13;;;5.30;99.90;;;;;;5054790;28;20534;-80
2021/03/09 09:02:07;;;;;;;19.40;17.30;;;5.40;99.90;;;;;;5072896;28;20444;-81
2021/03/09 09:04:32;;;;;;;19.90;15.67;;;5.50;99.90;;;;;;5054890;28;21062;-82
2021/03/09 09:06:58;;;;;;;16.23;14.53;;;5.80;99.90;;;;;;5072739;28;20505;-81
2021/03/09 09:09:36;;;;;;;15.63;13.83;;;5.60;1.00;;;;;;5072352;28;20171;-80
2021/03/09 09:12:28;;;;;;;16.30;14.70;;;6.00;96.60;;;;;;5054465;28;20837;-82
2021/03/09 09:15:04;;;;;;;17.20;15.47;;;6.10;1.00;;;;;;5067408;28;21053;-82
2021/03/09 09:17:30;;;;;;;16.00;14.50;;;6.30;1.00;;;;;;5071886;28;20457;-83
2021/03/09 09:20:00;;;;;;;20.13;16.10;;;6.10;1.00;;;;;;5054082;28;20485;-82
2021/03/09 09:22:27;;;;;;;16.87;15.00;;;6.00;1.00;;;;;;5054329;28;20421;-81
2021/03/09 09:24:57;;;;;;;16.87;15.17;;;6.30;1.00;;;;;;5054385;28;20467;-81
2021/03/09 09:27:23;;;;;;;17.33;15.73;;;6.30;1.00;;;;;;5054563;28;20460;-82
2021/03/09 09:29:54;;;;;;;19.00;15.63;;;6.50;1.00;;;;;;5054333;28;20422;-79
2021/03/09 09:32:20;;;;;;;19.33;14.10;;;6.70;99.90;;;;;;5050598;28;20478;-83
2021/03/09 09:34:45;;;;;;;15.90;14.40;;;6.60;99.90;;;;;;5053052;28;20422;-81
2021/03/09 09:37:14;;;;;;;16.50;14.53;;;6.80;99.90;;;;;;5052069;28;20179;-82
2021/03/09 09:39:40;;;;;;;18.87;15.93;;;6.80;99.90;;;;;;5052040;28;20171;-79
2021/03/09 09:42:17;;;;;;;19.00;14.50;;;7.20;99.90;;;;;;5050371;28;20434;-82
2021/03/09 09:44:44;;;;;;;17.80;15.70;;;7.20;99.90;;;;;;5051958;28;20421;-80
2021/03/09 09:47:10;;;;;;;16.77;15.10;;;7.40;99.90;;;;;;5050472;28;20433;-82
2021/03/09 09:49:43;;;;;;;16.77;15.10;;;7.50;79.00;;;;;;5051864;28;20411;-81
2021/03/09 09:52:17;;;;;;;15.07;13.57;;;7.80;33.50;;;;;;5033712;28;20560;-84
2021/03/09 09:54:53;;;;;;;18.53;15.10;;;7.50;1.00;;;;;;5051422;28;20402;-81
2021/03/09 09:57:19;;;;;;;25.10;15.53;;;7.30;1.00;;;;;;5051951;28;20465;-81
2021/03/09 09:59:45;;;;;;;34.17;14.80;;;7.40;1.00;;;;;;5050227;28;20474;-81
2021/03/09 10:02:22;;;;;;;15.57;13.87;;;7.50;1.00;;;;;;5065841;28;20437;-81
2021/03/09 10:04:48;;;;;;;15.40;12.63;;;7.70;1.00;;;;;;5056467;28;20271;-82
2021/03/09 10:07:18;;;;;;;16.70;13.40;;;8.00;1.00;;;;;;5075832;28;20441;-82
2021/03/09 10:10:19;;;;;;;17.87;16.07;;;8.10;1.00;;;;;;5062059;28;20203;-82
2021/03/09 10:12:45;;;;;;;13.33;12.03;;;8.00;1.00;;;;;;5014383;28;20444;-83
2021/03/09 10:15:12;;;;;;;14.97;13.50;;;8.10;1.00;;;;;;5045325;28;20446;-81
2021/03/09 10:17:37;;;;;;;19.23;14.87;;;7.80;1.00;;;;;;5075405;28;20416;-81
2021/03/09 10:20:16;;;;;;;16.23;13.70;;;7.70;1.00;;;;;;5075444;28;20972;-81
2021/03/09 10:22:42;;;;;;;14.50;12.07;;;7.60;1.00;;;;;;5057595;28;20696;-81
2021/03/09 10:25:13;;;;;;;14.50;12.60;;;7.90;1.00;;;;;;5075401;28;20409;-82
2021/03/09 10:27:39;;;;;;;21.57;13.43;;;8.10;1.00;;;;;;5076146;28;20714;-80
2021/03/09 10:30:05;;;;;;;14.57;13.07;;;8.10;1.00;;;;;;5057687;28;20515;-81
2021/03/09 10:32:31;;;;;;;12.73;11.53;;;8.00;1.00;;;;;;5075224;28;20316;-83
2021/03/09 10:35:06;;;;;;;19.17;13.07;;;8.20;1.00;;;;;;5057072;28;21023;-81
2021/03/09 10:37:41;;;;;;;13.57;12.33;;;8.10;1.00;;;;;;5075216;28;20225;-81
2021/03/09 10:40:09;;;;;;;13.50;11.60;;;8.10;1.00;;;;;;5051777;28;20412;-81
2021/03/09 10:42:39;;;;;;;14.37;11.67;;;8.10;1.00;;;;;;5056739;28;20449;-81
2021/03/09 10:45:25;;;;;;;20.10;12.20;;;8.30;1.00;;;;;;5056899;28;20475;-81
2021/03/09 10:48:01;;;;;;;19.90;13.17;;;8.20;1.00;;;;;;5056865;28;20426;-81
2021/03/09 10:50:31;;;;;;;12.97;11.40;;;8.70;1.00;;;;;;5074650;28;20734;-81
2021/03/09 10:52:57;;;;;;;16.70;11.20;;;8.70;99.90;;;;;;5074550;28;20429;-82
2021/03/09 10:55:23;;;;;;;13.63;11.30;;;8.90;99.90;;;;;;5075000;28;20947;-82
2021/03/09 10:57:48;;;;;;;14.70;10.17;;;9.40;99.90;;;;;;5072240;28;20183;-81
2021/03/09 11:00:19;;;;;;;12.00;10.73;;;9.60;99.90;;;;;;5054430;28;20226;-80
2021/03/09 11:02:45;;;;;;;12.20;10.97;;;9.10;99.90;;;;;;5036191;28;20184;-81
2021/03/09 11:05:12;;;;;;;13.80;10.70;;;9.10;99.90;;;;;;5036728;28;20422;-81
2021/03/09 11:07:37;;;;;;;15.40;9.80;;;9.00;99.90;;;;;;5054753;28;20419;-82
2021/03/09 11:10:05;;;;;;;14.50;11.00;;;9.00;99.90;;;;;;5054041;28;20418;-81
2021/03/09 11:12:30;;;;;;;17.53;9.83;;;9.00;99.90;;;;;;5036264;28;20254;-81
2021/03/09 11:14:56;;;;;;;12.10;10.90;;;9.30;99.90;;;;;;5070038;28;20453;-82
2021/03/09 11:17:22;;;;;;;12.83;11.50;;;9.70;99.90;;;;;;5036781;28;20187;-82
2021/03/09 11:19:47;;;;;;;16.60;12.37;;;9.60;99.90;;;;;;5036412;28;20182;-82
2021/03/09 11:22:13;;;;;;;13.57;12.33;;;9.20;99.90;;;;;;5036375;28;20206;-82
2021/03/09 11:24:38;;;;;;;15.10;11.23;;;9.60;99.90;;;;;;5054163;28;20237;-82
2021/03/09 11:27:05;;;;;;;12.77;11.20;;;9.80;99.90;;;;;;5054371;28;20558;-82
2021/03/09 11:29:33;;;;;;;13.10;11.77;;;9.60;99.90;;;;;;5054234;28;20176;-82
2021/03/09 11:31:59;;;;;;;13.03;11.07;;;9.90;99.90;;;;;;5054267;28;20480;-83
2021/03/09 11:34:24;;;;;;;15.40;12.77;;;10.20;99.90;;;;;;5054086;28;20426;-82
2021/03/09 11:36:51;;;;;;;12.37;11.27;;;10.00;99.90;;;;;;5064000;28;20429;-82
2021/03/09 11:39:16;;;;;;;13.20;10.07;;;10.00;99.90;;;;;;5074033;28;20167;-82
2021/03/09 11:41:42;;;;;;;13.40;11.93;;;10.10;99.90;;;;;;5050378;28;20438;-79
2021/03/09 11:44:08;;;;;;;12.90;11.60;;;9.60;99.90;;;;;;5072821;28;20191;-81
2021/03/09 11:46:35;;;;;;;12.40;11.20;;;9.50;99.90;;;;;;5073918;28;20172;-82
2021/03/09 11:49:01;;;;;;;11.47;10.43;;;9.50;99.90;;;;;;5055659;28;20500;-82
2021/03/09 11:51:27;;;;;;;14.80;10.47;;;9.80;99.90;;;;;;5055522;28;20453;-82
2021/03/09 11:53:53;;;;;;;11.50;10.30;;;10.20;99.90;;;;;;5056378;28;20175;-81
2021/03/09 11:56:18;;;;;;;24.23;19.77;;;10.70;99.90;;;;;;5051189;28;21162;-81
2021/03/09 11:58:44;;;;;;;21.47;13.30;;;10.30;99.90;;;;;;5046364;28;20434;-80
2021/03/09 12:01:09;;;;;;;17.70;11.80;;;9.60;99.90;;;;;;5036448;28;20199;-82
2021/03/09 12:03:35;;;;;;;22.80;13.23;;;9.30;99.90;;;;;;5036474;28;20180;-82
2021/03/09 12:06:00;;;;;;;13.00;11.63;;;9.40;99.90;;;;;;5036123;28;20182;-82
2021/03/09 12:08:26;;;;;;;19.90;12.37;;;9.30;99.90;;;;;;5053177;28;20670;-81
2021/03/09 12:10:52;;;;;;;11.83;10.73;;;9.60;99.90;;;;;;5035196;28;20548;-82
2021/03/09 12:13:17;;;;;;;13.37;12.07;;;9.80;99.90;;;;;;5053524;28;20175;-84
2021/03/09 12:15:43;;;;;;;13.87;12.63;;;9.70;99.90;;;;;;5035259;28;20715;-81
2021/03/09 12:18:09;;;;;;;11.50;10.27;;;9.60;99.90;;;;;;5052941;28;20179;-82
2021/03/09 12:20:35;;;;;;;11.70;10.53;;;9.60;99.90;;;;;;5036276;28;20186;-82
2021/03/09 12:23:01;;;;;;;12.13;10.97;;;9.60;99.90;;;;;;5035679;28;20176;-81
2021/03/09 12:25:27;;;;;;;13.77;11.30;;;9.60;99.90;;;;;;5053369;28;20423;-81
2021/03/09 12:27:52;;;;;;;11.73;10.50;;;9.50;99.90;;;;;;5034800;28;20434;-82
2021/03/09 12:30:18;;;;;;;12.30;11.07;;;9.50;99.90;;;;;;5035263;28;20281;-82
2021/03/09 12:32:44;;;;;;;13.93;11.20;;;9.30;99.90;;;;;;5052931;28;20294;-82
2021/03/09 12:35:10;;;;;;;13.43;11.97;;;9.40;99.90;;;;;;5035015;28;20509;-82
2021/03/09 12:37:36;;;;;;;17.27;12.90;;;9.20;99.90;;;;;;5034803;28;20175;-82
2021/03/09 12:40:03;;;;;;;12.83;11.53;;;8.70;99.90;;;;;;5034758;28;20415;-80
2021/03/09 12:42:28;;;;;;;21.93;12.43;;;8.60;99.90;;;;;;5035398;28;20433;-80
2021/03/09 12:44:54;;;;;;;11.77;10.70;;;8.40;99.90;;;;;;5052982;28;20505;-81
2021/03/09 12:47:21;;;;;;;13.60;12.20;;;8.50;99.90;;;;;;5034651;28;20176;-82
2021/03/09 12:49:47;;;;;;;13.13;11.93;;;8.40;99.90;;;;;;5034685;28;20180;-83
2021/03/09 12:52:12;;;;;;;13.93;12.23;;;8.90;99.90;;;;;;5035054;28;20474;-83